sensor_id;sensor_type;location;lat;lon;timestamp;pressure;altitude;pressure_sealevel;temperature;humidity
64025;BME280;50266;57.446;26.936;2022-09-28T00:00:10;98690.16;;;5.04;100.0
64025;BME280;50266;57.446;26.936;2022-09-28T00:02:14;98688.24;;;5.05;100.0
64025;BME280;50266;57.446;26.936;2022-09-28T00:03:14;98691.03;;;4.98;100.0
64025;BME280;50266;57.446;26.936;2022-09-28T00:04:14;98691.72;;;4.98;100.0
64025;BME280;50266;57.446;26.936;2022-09-28T00:05:14;98691.42;;;4.93;100.0
64025;BME280;50266;57.446;26.936;2022-09-28T00:06:15;98692.48;;;4.96;100.0
64025;BME280;50266;57.446;26.936;2022-09-28T00:07:14;98694.17;;;4.94;100.0
64025;BME280;50266;57.446;26.936;2022-09-28T00:08:14;98690.38;;;4.95;100.0
64025;BME280;50266;57.446;26.936;2022-09-28T00:09:15;98686.62;;;4.95;100.0
64025;BME280;50266;57.446;26.936;2022-09-28T00:10:15;98685.2;;;4.93;100.0
64025;BME280;50266;57.446;26.936;2022-09-28T00:11:15;98687.12;;;4.94;100.0
64025;BME280;50266;57.446;26.936;2022-09-28T00:12:14;98687.47;;;4.91;100.0
64025;BME280;50266;57.446;26.936;2022-09-28T00:13:14;98687.48;;;4.87;100.0
64025;BME280;50266;57.446;26.936;2022-09-28T00:14:14;98686.92;;;4.84;100.0
64025;BME280;50266;57.446;26.936;2022-09-28T00:15:14;98683.03;;;4.82;100.0
64025;BME280;50266;57.446;26.936;2022-09-28T00:16:15;98685.91;;;4.8;100.0
64025;BME280;50266;57.446;26.936;2022-09-28T00:17:14;98686.58;;;4.8;100.0
64025;BME280;50266;57.446;26.936;2022-09-28T00:18:14;98688.02;;;4.83;100.0
64025;BME280;50266;57.446;26.936;2022-09-28T00:19:14;98685.64;;;4.81;100.0
64025;BME280;50266;57.446;26.936;2022-09-28T00:20:14;98690.97;;;4.76;100.0
64025;BME280;50266;57.446;26.936;2022-09-28T00:21:16;98691.12;;;4.74;100.0
64025;BME280;50266;57.446;26.936;2022-09-28T00:22:14;98689.74;;;4.71;100.0
64025;BME280;50266;57.446;26.936;2022-09-28T00:23:14;98687.19;;;4.76;100.0
64025;BME280;50266;57.446;26.936;2022-09-28T00:24:14;98686.41;;;4.8;100.0
64025;BME280;50266;57.446;26.936;2022-09-28T00:25:14;98685.57;;;4.76;100.0
64025;BME280;50266;57.446;26.936;2022-09-28T00:26:15;98687.47;;;4.8;100.0
64025;BME280;50266;57.446;26.936;2022-09-28T00:27:15;98684.75;;;4.76;100.0
64025;BME280;50266;57.446;26.936;2022-09-28T00:28:15;98686.62;;;4.77;100.0
64025;BME280;50266;57.446;26.936;2022-09-28T00:29:18;98688.14;;;4.75;100.0
64025;BME280;50266;57.446;26.936;2022-09-28T00:30:16;98686.88;;;4.75;100.0
64025;BME280;50266;57.446;26.936;2022-09-28T00:31:15;98684.84;;;4.74;100.0
64025;BME280;50266;57.446;26.936;2022-09-28T00:32:15;98686.24;;;4.72;100.0
64025;BME280;50266;57.446;26.936;2022-09-28T00:33:16;98686.93;;;4.7;100.0
64025;BME280;50266;57.446;26.936;2022-09-28T00:34:16;98682.02;;;4.65;100.0
64025;BME280;50266;57.446;26.936;2022-09-28T00:35:15;98684.34;;;4.69;100.0
64025;BME280;50266;57.446;26.936;2022-09-28T00:36:16;98681.8;;;4.64;100.0
64025;BME280;50266;57.446;26.936;2022-09-28T00:37:16;98684.96;;;4.63;100.0
64025;BME280;50266;57.446;26.936;2022-09-28T00:38:15;98686.48;;;4.69;100.0
64025;BME280;50266;57.446;26.936;2022-09-28T00:39:16;98684.75;;;4.64;100.0
64025;BME280;50266;57.446;26.936;2022-09-28T00:40:16;98684.52;;;4.64;100.0
64025;BME280;50266;57.446;26.936;2022-09-28T00:41:16;98683.51;;;4.58;100.0
64025;BME280;50266;57.446;26.936;2022-09-28T00:42:17;98687.43;;;4.6;100.0
64025;BME280;50266;57.446;26.936;2022-09-28T00:43:18;98686.1;;;4.62;100.0
64025;BME280;50266;57.446;26.936;2022-09-28T00:44:26;98688.62;;;4.63;100.0
64025;BME280;50266;57.446;26.936;2022-09-28T00:45:16;98686.89;;;4.61;100.0
64025;BME280;50266;57.446;26.936;2022-09-28T00:46:28;98686.52;;;4.59;100.0
64025;BME280;50266;57.446;26.936;2022-09-28T00:47:29;98684.16;;;4.62;100.0
64025;BME280;50266;57.446;26.936;2022-09-28T00:48:19;98687.59;;;4.6;100.0
64025;BME280;50266;57.446;26.936;2022-09-28T00:49:20;98683.94;;;4.55;100.0
64025;BME280;50266;57.446;26.936;2022-09-28T00:50:21;98689.27;;;4.51;100.0
64025;BME280;50266;57.446;26.936;2022-09-28T00:51:19;98686.78;;;4.51;100.0
64025;BME280;50266;57.446;26.936;2022-09-28T00:52:30;98684.73;;;4.51;100.0
64025;BME280;50266;57.446;26.936;2022-09-28T00:53:24;98686.09;;;4.5;100.0
64025;BME280;50266;57.446;26.936;2022-09-28T00:54:24;98685.11;;;4.47;100.0
64025;BME280;50266;57.446;26.936;2022-09-28T00:55:27;98682.95;;;4.48;100.0
64025;BME280;50266;57.446;26.936;2022-09-28T00:56:26;98678.94;;;4.49;100.0
64025;BME280;50266;57.446;26.936;2022-09-28T00:57:25;98681.57;;;4.52;100.0
64025;BME280;50266;57.446;26.936;2022-09-28T00:58:26;98679.36;;;4.52;100.0
64025;BME280;50266;57.446;26.936;2022-09-28T00:59:25;98679.62;;;4.52;100.0
64025;BME280;50266;57.446;26.936;2022-09-28T01:00:25;98678.0;;;4.56;100.0
64025;BME280;50266;57.446;26.936;2022-09-28T01:01:25;98677.31;;;4.54;100.0
64025;BME280;50266;57.446;26.936;2022-09-28T01:02:25;98678.58;;;4.51;100.0
64025;BME280;50266;57.446;26.936;2022-09-28T01:03:25;98679.25;;;4.53;100.0
64025;BME280;50266;57.446;26.936;2022-09-28T01:04:25;98678.2;;;4.47;100.0
64025;BME280;50266;57.446;26.936;2022-09-28T01:05:25;98676.03;;;4.47;100.0
64025;BME280;50266;57.446;26.936;2022-09-28T01:06:26;98678.61;;;4.49;100.0
64025;BME280;50266;57.446;26.936;2022-09-28T01:07:25;98675.32;;;4.52;100.0
64025;BME280;50266;57.446;26.936;2022-09-28T01:08:25;98677.1;;;4.51;100.0
64025;BME280;50266;57.446;26.936;2022-09-28T01:09:26;98679.91;;;4.5;100.0
64025;BME280;50266;57.446;26.936;2022-09-28T01:10:26;98681.06;;;4.56;100.0
64025;BME280;50266;57.446;26.936;2022-09-28T01:11:25;98678.7;;;4.55;100.0
64025;BME280;50266;57.446;26.936;2022-09-28T01:12:25;98678.55;;;4.49;100.0
64025;BME280;50266;57.446;26.936;2022-09-28T01:13:25;98681.73;;;4.43;100.0
64025;BME280;50266;57.446;26.936;2022-09-28T01:14:25;98680.31;;;4.38;100.0
64025;BME280;50266;57.446;26.936;2022-09-28T01:15:26;98679.95;;;4.37;100.0
64025;BME280;50266;57.446;26.936;2022-09-28T01:16:38;98680.91;;;4.4;100.0
64025;BME280;50266;57.446;26.936;2022-09-28T01:18:36;98676.88;;;4.33;100.0
64025;BME280;50266;57.446;26.936;2022-09-28T01:20:41;98677.17;;;4.32;100.0
64025;BME280;50266;57.446;26.936;2022-09-28T01:21:45;98674.19;;;4.41;100.0
64025;BME280;50266;57.446;26.936;2022-09-28T01:24:53;98677.59;;;4.29;100.0
64025;BME280;50266;57.446;26.936;2022-09-28T01:25:57;98678.66;;;4.35;100.0
64025;BME280;50266;57.446;26.936;2022-09-28T01:26:55;98673.88;;;4.39;100.0
64025;BME280;50266;57.446;26.936;2022-09-28T01:28:01;98673.88;;;4.4;100.0
64025;BME280;50266;57.446;26.936;2022-09-28T01:29:01;98682.08;;;4.32;100.0
64025;BME280;50266;57.446;26.936;2022-09-28T01:30:03;98672.23;;;4.3;100.0
64025;BME280;50266;57.446;26.936;2022-09-28T01:31:04;98674.35;;;4.32;100.0
64025;BME280;50266;57.446;26.936;2022-09-28T01:32:10;98671.81;;;4.29;100.0
64025;BME280;50266;57.446;26.936;2022-09-28T01:33:08;98669.79;;;4.31;100.0
64025;BME280;50266;57.446;26.936;2022-09-28T01:34:13;98678.09;;;4.26;100.0
64025;BME280;50266;57.446;26.936;2022-09-28T01:35:07;98673.5;;;4.31;100.0
64025;BME280;50266;57.446;26.936;2022-09-28T01:36:10;98678.2;;;4.31;100.0
64025;BME280;50266;57.446;26.936;2022-09-28T01:37:08;98670.35;;;4.34;100.0
64025;BME280;50266;57.446;26.936;2022-09-28T01:38:21;98674.58;;;4.31;100.0
64025;BME280;50266;57.446;26.936;2022-09-28T01:39:21;98678.2;;;4.28;100.0
64025;BME280;50266;57.446;26.936;2022-09-28T01:40:14;98682.12;;;4.27;100.0
64025;BME280;50266;57.446;26.936;2022-09-28T01:41:14;98682.2;;;4.26;100.0
64025;BME280;50266;57.446;26.936;2022-09-28T01:42:16;98680.44;;;4.24;100.0
64025;BME280;50266;57.446;26.936;2022-09-28T01:43:19;98680.54;;;4.25;100.0
64025;BME280;50266;57.446;26.936;2022-09-28T01:44:18;98678.89;;;4.25;100.0
64025;BME280;50266;57.446;26.936;2022-09-28T01:45:22;98683.36;;;4.22;100.0
64025;BME280;50266;57.446;26.936;2022-09-28T01:46:22;98680.45;;;4.2;100.0
64025;BME280;50266;57.446;26.936;2022-09-28T01:47:21;98674.09;;;4.18;100.0
64025;BME280;50266;57.446;26.936;2022-09-28T01:48:25;98677.92;;;4.16;100.0
64025;BME280;50266;57.446;26.936;2022-09-28T01:49:26;98678.91;;;4.12;100.0
64025;BME280;50266;57.446;26.936;2022-09-28T01:50:24;98682.12;;;4.13;100.0
64025;BME280;50266;57.446;26.936;2022-09-28T01:51:28;98679.63;;;4.09;100.0
64025;BME280;50266;57.446;26.936;2022-09-28T01:52:32;98681.19;;;4.15;100.0
64025;BME280;50266;57.446;26.936;2022-09-28T01:53:37;98677.88;;;4.11;100.0
64025;BME280;50266;57.446;26.936;2022-09-28T01:54:32;98675.73;;;4.08;100.0
64025;BME280;50266;57.446;26.936;2022-09-28T01:55:31;98676.38;;;4.05;100.0
64025;BME280;50266;57.446;26.936;2022-09-28T01:56:35;98676.09;;;4.09;100.0
64025;BME280;50266;57.446;26.936;2022-09-28T01:57:38;98670.02;;;4.12;100.0
64025;BME280;50266;57.446;26.936;2022-09-28T01:58:38;98672.66;;;4.11;100.0
64025;BME280;50266;57.446;26.936;2022-09-28T01:59:39;98672.38;;;4.12;100.0
64025;BME280;50266;57.446;26.936;2022-09-28T02:00:39;98668.72;;;4.06;100.0
64025;BME280;50266;57.446;26.936;2022-09-28T02:01:39;98669.11;;;4.06;100.0
64025;BME280;50266;57.446;26.936;2022-09-28T02:02:49;98667.77;;;4.09;100.0
64025;BME280;50266;57.446;26.936;2022-09-28T02:03:53;98666.14;;;4.1;100.0
64025;BME280;50266;57.446;26.936;2022-09-28T02:04:53;98664.55;;;4.08;100.0
64025;BME280;50266;57.446;26.936;2022-09-28T02:05:53;98662.71;;;4.12;100.0
64025;BME280;50266;57.446;26.936;2022-09-28T02:06:53;98658.23;;;4.06;100.0
64025;BME280;50266;57.446;26.936;2022-09-28T02:08:05;98659.88;;;4.1;100.0
64025;BME280;50266;57.446;26.936;2022-09-28T02:08:55;98659.36;;;4.08;100.0
64025;BME280;50266;57.446;26.936;2022-09-28T02:09:55;98657.56;;;4.08;100.0
64025;BME280;50266;57.446;26.936;2022-09-28T02:10:56;98654.24;;;4.08;100.0
64025;BME280;50266;57.446;26.936;2022-09-28T02:11:56;98649.12;;;4.07;100.0
64025;BME280;50266;57.446;26.936;2022-09-28T02:12:59;98650.23;;;4.11;100.0
64025;BME280;50266;57.446;26.936;2022-09-28T02:13:59;98652.5;;;4.04;100.0
64025;BME280;50266;57.446;26.936;2022-09-28T02:15:00;98651.59;;;4.06;100.0
64025;BME280;50266;57.446;26.936;2022-09-28T02:16:07;98648.36;;;4.01;100.0
64025;BME280;50266;57.446;26.936;2022-09-28T02:17:02;98648.7;;;4.06;100.0
64025;BME280;50266;57.446;26.936;2022-09-28T02:18:02;98643.9;;;4.03;100.0
64025;BME280;50266;57.446;26.936;2022-09-28T02:19:03;98640.89;;;4.01;100.0
64025;BME280;50266;57.446;26.936;2022-09-28T02:20:02;98638.03;;;3.95;100.0
64025;BME280;50266;57.446;26.936;2022-09-28T02:21:10;98640.33;;;3.87;100.0
64025;BME280;50266;57.446;26.936;2022-09-28T02:22:09;98638.45;;;3.85;100.0
64025;BME280;50266;57.446;26.936;2022-09-28T02:23:04;98637.97;;;3.83;100.0
64025;BME280;50266;57.446;26.936;2022-09-28T02:24:08;98635.94;;;3.84;100.0
64025;BME280;50266;57.446;26.936;2022-09-28T02:26:11;98633.59;;;3.66;100.0
64025;BME280;50266;57.446;26.936;2022-09-28T02:27:15;98634.56;;;3.72;100.0
64025;BME280;50266;57.446;26.936;2022-09-28T02:28:12;98635.91;;;3.74;100.0
64025;BME280;50266;57.446;26.936;2022-09-28T02:29:12;98633.09;;;3.73;100.0
64025;BME280;50266;57.446;26.936;2022-09-28T02:30:12;98632.11;;;3.69;100.0
64025;BME280;50266;57.446;26.936;2022-09-28T02:31:12;98633.96;;;3.76;100.0
64025;BME280;50266;57.446;26.936;2022-09-28T02:32:12;98635.56;;;3.77;100.0
64025;BME280;50266;57.446;26.936;2022-09-28T02:33:14;98635.79;;;3.66;100.0
64025;BME280;50266;57.446;26.936;2022-09-28T02:34:13;98634.47;;;3.67;100.0
64025;BME280;50266;57.446;26.936;2022-09-28T02:35:15;98632.85;;;3.63;100.0
64025;BME280;50266;57.446;26.936;2022-09-28T02:36:13;98632.97;;;3.7;100.0
64025;BME280;50266;57.446;26.936;2022-09-28T02:37:13;98633.22;;;3.67;100.0
64025;BME280;50266;57.446;26.936;2022-09-28T02:38:13;98633.98;;;3.77;100.0
64025;BME280;50266;57.446;26.936;2022-09-28T02:39:13;98641.54;;;3.73;100.0
64025;BME280;50266;57.446;26.936;2022-09-28T02:40:20;98635.25;;;3.76;100.0
64025;BME280;50266;57.446;26.936;2022-09-28T02:43:30;98642.52;;;3.61;100.0
64025;BME280;50266;57.446;26.936;2022-09-28T02:46:25;98635.94;;;3.64;100.0
64025;BME280;50266;57.446;26.936;2022-09-28T02:51:41;98632.32;;;3.68;100.0
64025;BME280;50266;57.446;26.936;2022-09-28T02:52:46;98633.33;;;3.69;100.0
64025;BME280;50266;57.446;26.936;2022-09-28T02:58:07;98627.02;;;3.73;100.0
64025;BME280;50266;57.446;26.936;2022-09-28T03:02:12;98625.75;;;3.68;100.0
64025;BME280;50266;57.446;26.936;2022-09-28T03:06:08;98628.42;;;3.74;100.0
64025;BME280;50266;57.446;26.936;2022-09-28T03:07:21;98626.05;;;3.68;100.0
64025;BME280;50266;57.446;26.936;2022-09-28T03:09:27;98626.64;;;3.79;100.0
64025;BME280;50266;57.446;26.936;2022-09-28T03:10:15;98626.28;;;3.78;100.0
64025;BME280;50266;57.446;26.936;2022-09-28T03:11:24;98622.54;;;3.82;100.0
64025;BME280;50266;57.446;26.936;2022-09-28T03:12:18;98624.13;;;3.84;100.0
64025;BME280;50266;57.446;26.936;2022-09-28T03:13:18;98626.74;;;3.82;100.0
64025;BME280;50266;57.446;26.936;2022-09-28T03:14:18;98623.58;;;3.83;100.0
64025;BME280;50266;57.446;26.936;2022-09-28T03:15:25;98617.53;;;3.87;100.0
64025;BME280;50266;57.446;26.936;2022-09-28T03:16:22;98617.8;;;3.9;100.0
64025;BME280;50266;57.446;26.936;2022-09-28T03:17:22;98616.17;;;3.92;100.0
64025;BME280;50266;57.446;26.936;2022-09-28T03:18:22;98617.0;;;3.92;100.0
64025;BME280;50266;57.446;26.936;2022-09-28T03:19:23;98622.45;;;3.92;100.0
64025;BME280;50266;57.446;26.936;2022-09-28T03:20:22;98613.45;;;3.91;100.0
64025;BME280;50266;57.446;26.936;2022-09-28T03:21:22;98619.9;;;3.91;100.0
64025;BME280;50266;57.446;26.936;2022-09-28T03:22:22;98624.16;;;3.92;100.0
64025;BME280;50266;57.446;26.936;2022-09-28T03:23:22;98624.03;;;3.91;100.0
64025;BME280;50266;57.446;26.936;2022-09-28T03:24:22;98621.79;;;3.92;100.0
64025;BME280;50266;57.446;26.936;2022-09-28T03:25:22;98621.38;;;3.94;100.0
64025;BME280;50266;57.446;26.936;2022-09-28T03:26:22;98617.4;;;3.84;100.0
64025;BME280;50266;57.446;26.936;2022-09-28T03:27:22;98621.37;;;3.85;100.0
64025;BME280;50266;57.446;26.936;2022-09-28T03:28:22;98619.58;;;3.82;100.0
64025;BME280;50266;57.446;26.936;2022-09-28T03:29:22;98619.48;;;3.79;100.0
64025;BME280;50266;57.446;26.936;2022-09-28T03:30:22;98622.23;;;3.76;100.0
64025;BME280;50266;57.446;26.936;2022-09-28T03:31:22;98619.5;;;3.76;100.0
64025;BME280;50266;57.446;26.936;2022-09-28T03:32:22;98620.78;;;3.77;100.0
64025;BME280;50266;57.446;26.936;2022-09-28T03:33:22;98617.62;;;3.81;100.0
64025;BME280;50266;57.446;26.936;2022-09-28T03:34:22;98620.41;;;3.82;100.0
64025;BME280;50266;57.446;26.936;2022-09-28T03:35:22;98620.55;;;3.74;100.0
64025;BME280;50266;57.446;26.936;2022-09-28T03:36:22;98617.08;;;3.72;100.0
64025;BME280;50266;57.446;26.936;2022-09-28T03:37:22;98617.62;;;3.73;100.0
64025;BME280;50266;57.446;26.936;2022-09-28T03:38:23;98616.3;;;3.71;100.0
64025;BME280;50266;57.446;26.936;2022-09-28T03:39:22;98614.05;;;3.76;100.0
64025;BME280;50266;57.446;26.936;2022-09-28T03:40:22;98616.62;;;3.75;100.0
64025;BME280;50266;57.446;26.936;2022-09-28T03:41:22;98611.45;;;3.76;100.0
64025;BME280;50266;57.446;26.936;2022-09-28T03:42:22;98613.22;;;3.77;100.0
64025;BME280;50266;57.446;26.936;2022-09-28T03:43:23;98611.86;;;3.76;100.0
64025;BME280;50266;57.446;26.936;2022-09-28T03:44:22;98610.44;;;3.77;100.0
64025;BME280;50266;57.446;26.936;2022-09-28T03:45:22;98606.27;;;3.8;100.0
64025;BME280;50266;57.446;26.936;2022-09-28T03:46:23;98603.27;;;3.78;100.0
64025;BME280;50266;57.446;26.936;2022-09-28T03:47:22;98601.97;;;3.78;100.0
64025;BME280;50266;57.446;26.936;2022-09-28T03:48:23;98598.84;;;3.8;100.0
64025;BME280;50266;57.446;26.936;2022-09-28T03:49:27;98602.0;;;3.76;100.0
64025;BME280;50266;57.446;26.936;2022-09-28T03:50:27;98601.7;;;3.79;100.0
64025;BME280;50266;57.446;26.936;2022-09-28T03:51:27;98599.62;;;3.74;100.0
64025;BME280;50266;57.446;26.936;2022-09-28T03:52:27;98598.98;;;3.75;100.0
64025;BME280;50266;57.446;26.936;2022-09-28T03:53:27;98595.98;;;3.83;100.0
64025;BME280;50266;57.446;26.936;2022-09-28T03:54:27;98601.78;;;3.82;100.0
64025;BME280;50266;57.446;26.936;2022-09-28T03:55:27;98599.02;;;3.78;100.0
64025;BME280;50266;57.446;26.936;2022-09-28T03:56:27;98600.98;;;3.8;100.0
64025;BME280;50266;57.446;26.936;2022-09-28T03:57:27;98599.96;;;3.79;100.0
64025;BME280;50266;57.446;26.936;2022-09-28T03:58:27;98596.08;;;3.76;100.0
64025;BME280;50266;57.446;26.936;2022-09-28T03:59:27;98597.38;;;3.75;100.0
64025;BME280;50266;57.446;26.936;2022-09-28T04:00:27;98597.97;;;3.74;100.0
64025;BME280;50266;57.446;26.936;2022-09-28T04:01:27;98591.8;;;3.74;100.0
64025;BME280;50266;57.446;26.936;2022-09-28T04:02:27;98592.03;;;3.7;100.0
64025;BME280;50266;57.446;26.936;2022-09-28T04:03:27;98594.7;;;3.7;100.0
64025;BME280;50266;57.446;26.936;2022-09-28T04:04:27;98592.02;;;3.72;100.0
64025;BME280;50266;57.446;26.936;2022-09-28T04:05:27;98591.33;;;3.68;100.0
64025;BME280;50266;57.446;26.936;2022-09-28T04:06:27;98594.25;;;3.69;100.0
64025;BME280;50266;57.446;26.936;2022-09-28T04:07:27;98588.59;;;3.69;100.0
64025;BME280;50266;57.446;26.936;2022-09-28T04:08:27;98594.34;;;3.62;100.0
64025;BME280;50266;57.446;26.936;2022-09-28T04:09:27;98594.19;;;3.6;100.0
64025;BME280;50266;57.446;26.936;2022-09-28T04:10:27;98592.25;;;3.64;100.0
64025;BME280;50266;57.446;26.936;2022-09-28T04:11:27;98593.02;;;3.63;100.0
64025;BME280;50266;57.446;26.936;2022-09-28T04:12:28;98597.7;;;3.6;100.0
64025;BME280;50266;57.446;26.936;2022-09-28T04:13:28;98593.02;;;3.63;100.0
64025;BME280;50266;57.446;26.936;2022-09-28T04:14:28;98598.41;;;3.62;100.0
64025;BME280;50266;57.446;26.936;2022-09-28T04:15:28;98593.45;;;3.62;100.0
64025;BME280;50266;57.446;26.936;2022-09-28T04:16:28;98591.34;;;3.67;100.0
64025;BME280;50266;57.446;26.936;2022-09-28T04:17:28;98587.78;;;3.68;100.0
64025;BME280;50266;57.446;26.936;2022-09-28T04:18:28;98592.84;;;3.61;100.0
64025;BME280;50266;57.446;26.936;2022-09-28T04:19:28;98592.94;;;3.6;100.0
64025;BME280;50266;57.446;26.936;2022-09-28T04:20:28;98590.61;;;3.64;100.0
64025;BME280;50266;57.446;26.936;2022-09-28T04:21:28;98591.62;;;3.6;100.0
64025;BME280;50266;57.446;26.936;2022-09-28T04:22:28;98595.55;;;3.58;100.0
64025;BME280;50266;57.446;26.936;2022-09-28T04:23:28;98590.53;;;3.61;100.0
64025;BME280;50266;57.446;26.936;2022-09-28T04:24:28;98591.52;;;3.66;100.0
64025;BME280;50266;57.446;26.936;2022-09-28T04:25:28;98588.73;;;3.61;100.0
64025;BME280;50266;57.446;26.936;2022-09-28T04:26:28;98583.01;;;3.62;100.0
64025;BME280;50266;57.446;26.936;2022-09-28T04:27:28;98584.04;;;3.53;100.0
64025;BME280;50266;57.446;26.936;2022-09-28T04:28:28;98578.62;;;3.49;100.0
64025;BME280;50266;57.446;26.936;2022-09-28T04:29:28;98584.09;;;3.5;100.0
64025;BME280;50266;57.446;26.936;2022-09-28T04:30:28;98583.87;;;3.5;100.0
64025;BME280;50266;57.446;26.936;2022-09-28T04:31:28;98575.42;;;3.58;100.0
64025;BME280;50266;57.446;26.936;2022-09-28T04:32:28;98572.33;;;3.63;100.0
64025;BME280;50266;57.446;26.936;2022-09-28T04:33:28;98573.5;;;3.63;100.0
64025;BME280;50266;57.446;26.936;2022-09-28T04:34:28;98574.36;;;3.63;100.0
64025;BME280;50266;57.446;26.936;2022-09-28T04:35:31;98580.66;;;3.56;100.0
64025;BME280;50266;57.446;26.936;2022-09-28T04:36:31;98575.23;;;3.61;100.0
64025;BME280;50266;57.446;26.936;2022-09-28T04:37:31;98575.81;;;3.59;100.0
64025;BME280;50266;57.446;26.936;2022-09-28T04:38:31;98582.52;;;3.59;100.0
64025;BME280;50266;57.446;26.936;2022-09-28T04:39:32;98580.39;;;3.57;100.0
64025;BME280;50266;57.446;26.936;2022-09-28T04:40:32;98569.66;;;3.53;100.0
64025;BME280;50266;57.446;26.936;2022-09-28T04:41:32;98565.53;;;3.51;100.0
64025;BME280;50266;57.446;26.936;2022-09-28T04:42:32;98564.55;;;3.51;100.0
64025;BME280;50266;57.446;26.936;2022-09-28T04:43:32;98564.56;;;3.45;100.0
64025;BME280;50266;57.446;26.936;2022-09-28T04:44:32;98558.68;;;3.5;100.0
64025;BME280;50266;57.446;26.936;2022-09-28T04:45:32;98557.5;;;3.47;100.0
64025;BME280;50266;57.446;26.936;2022-09-28T04:46:32;98559.86;;;3.51;100.0
64025;BME280;50266;57.446;26.936;2022-09-28T04:47:32;98558.09;;;3.5;100.0
64025;BME280;50266;57.446;26.936;2022-09-28T04:48:32;98557.02;;;3.45;100.0
64025;BME280;50266;57.446;26.936;2022-09-28T04:49:32;98554.25;;;3.42;100.0
64025;BME280;50266;57.446;26.936;2022-09-28T04:50:32;98554.84;;;3.46;100.0
64025;BME280;50266;57.446;26.936;2022-09-28T04:51:32;98556.59;;;3.5;100.0
64025;BME280;50266;57.446;26.936;2022-09-28T04:52:34;98552.69;;;3.44;100.0
64025;BME280;50266;57.446;26.936;2022-09-28T04:53:33;98553.19;;;3.52;100.0
64025;BME280;50266;57.446;26.936;2022-09-28T04:54:33;98551.8;;;3.42;100.0
64025;BME280;50266;57.446;26.936;2022-09-28T04:55:33;98551.66;;;3.47;100.0
64025;BME280;50266;57.446;26.936;2022-09-28T04:56:33;98550.66;;;3.48;100.0
64025;BME280;50266;57.446;26.936;2022-09-28T04:57:33;98552.22;;;3.49;100.0
64025;BME280;50266;57.446;26.936;2022-09-28T04:58:33;98549.98;;;3.57;100.0
64025;BME280;50266;57.446;26.936;2022-09-28T04:59:33;98548.91;;;3.53;100.0
64025;BME280;50266;57.446;26.936;2022-09-28T05:00:33;98549.84;;;3.54;100.0
64025;BME280;50266;57.446;26.936;2022-09-28T05:01:33;98550.41;;;3.51;100.0
64025;BME280;50266;57.446;26.936;2022-09-28T05:02:33;98547.73;;;3.48;100.0
64025;BME280;50266;57.446;26.936;2022-09-28T05:03:33;98544.53;;;3.5;100.0
64025;BME280;50266;57.446;26.936;2022-09-28T05:04:33;98550.31;;;3.49;100.0
64025;BME280;50266;57.446;26.936;2022-09-28T05:05:33;98545.92;;;3.48;100.0
64025;BME280;50266;57.446;26.936;2022-09-28T05:06:33;98543.39;;;3.45;100.0
64025;BME280;50266;57.446;26.936;2022-09-28T05:07:33;98548.65;;;3.49;100.0
64025;BME280;50266;57.446;26.936;2022-09-28T05:08:33;98546.11;;;3.53;100.0
64025;BME280;50266;57.446;26.936;2022-09-28T05:09:33;98549.67;;;3.52;100.0
64025;BME280;50266;57.446;26.936;2022-09-28T05:10:34;98543.12;;;3.5;100.0
64025;BME280;50266;57.446;26.936;2022-09-28T05:11:33;98548.0;;;3.52;100.0
64025;BME280;50266;57.446;26.936;2022-09-28T05:12:33;98543.77;;;3.54;100.0
64025;BME280;50266;57.446;26.936;2022-09-28T05:13:37;98542.38;;;3.52;100.0
64025;BME280;50266;57.446;26.936;2022-09-28T05:14:34;98545.52;;;3.53;100.0
64025;BME280;50266;57.446;26.936;2022-09-28T05:15:35;98541.17;;;3.61;100.0
64025;BME280;50266;57.446;26.936;2022-09-28T05:16:34;98544.27;;;3.65;100.0
64025;BME280;50266;57.446;26.936;2022-09-28T05:17:34;98542.88;;;3.62;100.0
64025;BME280;50266;57.446;26.936;2022-09-28T05:18:34;98544.7;;;3.59;100.0
64025;BME280;50266;57.446;26.936;2022-09-28T05:19:34;98547.18;;;3.58;100.0
64025;BME280;50266;57.446;26.936;2022-09-28T05:20:38;98546.32;;;3.62;100.0
64025;BME280;50266;57.446;26.936;2022-09-28T05:21:35;98549.19;;;3.62;100.0
64025;BME280;50266;57.446;26.936;2022-09-28T05:22:35;98546.26;;;3.65;100.0
64025;BME280;50266;57.446;26.936;2022-09-28T05:23:35;98545.02;;;3.65;100.0
64025;BME280;50266;57.446;26.936;2022-09-28T05:24:35;98546.07;;;3.68;100.0
64025;BME280;50266;57.446;26.936;2022-09-28T05:25:35;98547.56;;;3.73;100.0
64025;BME280;50266;57.446;26.936;2022-09-28T05:26:35;98553.66;;;3.78;100.0
64025;BME280;50266;57.446;26.936;2022-09-28T05:27:35;98549.45;;;3.81;100.0
64025;BME280;50266;57.446;26.936;2022-09-28T05:28:35;98552.11;;;3.81;100.0
64025;BME280;50266;57.446;26.936;2022-09-28T05:29:35;98553.17;;;3.77;100.0
64025;BME280;50266;57.446;26.936;2022-09-28T05:30:35;98551.25;;;3.79;100.0
64025;BME280;50266;57.446;26.936;2022-09-28T05:31:35;98554.82;;;3.8;100.0
64025;BME280;50266;57.446;26.936;2022-09-28T05:32:39;98555.16;;;3.82;100.0
64025;BME280;50266;57.446;26.936;2022-09-28T05:33:35;98558.62;;;3.86;100.0
64025;BME280;50266;57.446;26.936;2022-09-28T05:34:35;98557.41;;;3.9;100.0
64025;BME280;50266;57.446;26.936;2022-09-28T05:35:35;98557.42;;;3.91;100.0
64025;BME280;50266;57.446;26.936;2022-09-28T05:36:35;98558.3;;;3.99;100.0
64025;BME280;50266;57.446;26.936;2022-09-28T05:37:35;98559.94;;;4.11;100.0
64025;BME280;50266;57.446;26.936;2022-09-28T05:38:35;98561.41;;;4.03;100.0
64025;BME280;50266;57.446;26.936;2022-09-28T05:39:35;98562.36;;;4.06;100.0
64025;BME280;50266;57.446;26.936;2022-09-28T05:40:35;98558.35;;;4.06;100.0
64025;BME280;50266;57.446;26.936;2022-09-28T05:41:35;98556.94;;;4.09;100.0
64025;BME280;50266;57.446;26.936;2022-09-28T05:42:35;98561.66;;;4.07;100.0
64025;BME280;50266;57.446;26.936;2022-09-28T05:43:35;98559.8;;;4.03;100.0
64025;BME280;50266;57.446;26.936;2022-09-28T05:44:35;98561.24;;;4.06;100.0
64025;BME280;50266;57.446;26.936;2022-09-28T05:45:35;98559.45;;;4.17;100.0
64025;BME280;50266;57.446;26.936;2022-09-28T05:46:35;98559.62;;;4.21;100.0